Dades meteomassalio
Diari Summary for Setembre 10, 2017 Units:  Metric    English   Both
« Previous Day
Next Day »
Diari Semanal Mensual Anual Personalitzat
  Maxima: Minima: Mijana:
Temperatura: -17.8 °C -10.7 °C -8 °C
Rosada: -17.8 °C -13.8 °C -13.1 °C
Humitat: Humidity % 41 % 56 %
Velocitat del vent: 0 km/h 0 km/h 61.5 km/h
Racha vent: 0 km/h - -
Vent:- - SW
Pressio: 0 hPa 34235.8 hPa -
Pluja: 0 mm    
Historical Graphs
 
 
Tabular Data for Setembre 10, 2017
Time Temperature Dew Point Pressure Wind Wind Speed Wind Gust Humidity Rainfall Rate (Hourly) solar Conditions
-17.8 °C -17.8 °C 0 hPa Calm     Humidity % 0 mm SolarRadiationWatts/m^2 W/m2 Conditions
00:04 -9.1 °C -13.4 °C 34256.2 hPa WSW 57 km/h 57 km/h 60 % 0 mm 0.0 W/m2 RA
00:09 -9.4 °C -13.7 °C 34256.2 hPa SSW 47.6 km/h 47.6 km/h 60 % 0 mm 0.0 W/m2 CLR
00:14 -9.4 °C -13.6 °C 34256.2 hPa SSW 38.8 km/h 38.8 km/h 61 % 0 mm 0.0 W/m2 CLR
00:19 -9.4 °C -13.6 °C 34256.2 hPa SW 41.7 km/h 41.7 km/h 61 % 0 mm 0.0 W/m2 CLR
00:24 -9.4 °C -13.4 °C 34269.7 hPa SSW 38.8 km/h 38.8 km/h 62 % 0 mm 0.0 W/m2 CLR
00:29 -9.4 °C -13.4 °C 34269.7 hPa SSW 35.7 km/h 35.7 km/h 62 % 0 mm 0.0 W/m2 CLR
00:34 -9.8 °C -13.8 °C 34269.7 hPa SSW 41.7 km/h 41.7 km/h 62 % 0 mm 0.0 W/m2 CLR
00:39 -9.8 °C -13.6 °C 34256.2 hPa SSW 47.6 km/h 47.6 km/h 63 % 0 mm 0.0 W/m2 CLR
00:44 -9.8 °C -13.6 °C 34256.2 hPa SSW 53.6 km/h 53.6 km/h 63 % 0 mm 0.0 W/m2 CLR
00:49 -9.8 °C -13.6 °C 34256.2 hPa SSW 44.7 km/h 44.7 km/h 63 % 0 mm 0.0 W/m2 CLR
00:54 -9.8 °C -13.5 °C 34256.2 hPa SW 41.4 km/h 41.4 km/h 64 % 0 mm 0.0 W/m2 CLR
00:59 -9.8 °C -13.5 °C 34256.2 hPa SSW 29.8 km/h 29.8 km/h 64 % 0 mm 0.0 W/m2 CLR
01:04 -9.8 °C -13.5 °C 34246 hPa SSW 50.7 km/h 50.7 km/h 64 % 0 mm 0.0 W/m2 CLR
01:09 -9.8 °C -13.5 °C 34246 hPa WSW 56.6 km/h 56.6 km/h 64 % 0 mm 0.0 W/m2 CLR
01:15 -9.8 °C -13.4 °C 34246 hPa SSW 62.1 km/h 62.1 km/h 65 % 0 mm 0.0 W/m2 CLR
01:20 -9.8 °C -13.4 °C 34246 hPa SSW 59.5 km/h 59.5 km/h 65 % 0 mm 0.0 W/m2 CLR
01:25 -9.8 °C -13.4 °C 34246 hPa SSW 56.6 km/h 56.6 km/h 65 % 0 mm 0.0 W/m2 CLR
01:30 -9.8 °C -13.4 °C 34246 hPa SSW 62.6 km/h 62.6 km/h 65 % 0 mm 0.0 W/m2 CLR
01:35 -9.8 °C -13.4 °C 34246 hPa SW 68.6 km/h 68.6 km/h 65 % 0 mm 0.0 W/m2 CLR
01:40 -9.8 °C -13.4 °C 34256.2 hPa SW 41.4 km/h 41.4 km/h 65 % 0 mm 0.0 W/m2 CLR
01:45 -9.8 °C -13.2 °C 34256.2 hPa SSW 56.6 km/h 56.6 km/h 66 % 0 mm 0.0 W/m2 CLR
01:50 -9.8 °C -13.2 °C 34246 hPa West 47.6 km/h 47.6 km/h 66 % 0 mm 0.0 W/m2 CLR
01:55 -9.8 °C -13.1 °C 34246 hPa WSW 47.6 km/h 47.6 km/h 67 % 0 mm 0.0 W/m2 CLR
02:00 -9.8 °C -13.1 °C 34246 hPa SW 68.6 km/h 68.6 km/h 67 % 0 mm 0.0 W/m2 CLR
02:05 -10.1 °C -13.6 °C 34235.8 hPa SW 68.6 km/h 68.6 km/h 66 % 0 mm 0.0 W/m2 CLR
02:10 -10.1 °C -13.6 °C 34235.8 hPa SSW 59.5 km/h 59.5 km/h 66 % 0 mm 0.0 W/m2 CLR
02:12 -10.1 °C -13.6 °C 34235.8 hPa SSW 65.5 km/h 65.5 km/h 66 % 0 mm 0.0 W/m2 CLR
02:17 -9.8 °C -13.2 °C 34235.8 hPa SW 71.5 km/h 71.5 km/h 66 % 0 mm 0.0 W/m2 CLR
02:22 -10.1 °C -13.6 °C 34235.8 hPa SSW 71.5 km/h 71.5 km/h 66 % 0 mm 0.0 W/m2 CLR
02:27 -10.1 °C -13.6 °C 34235.8 hPa SW 74.5 km/h 74.5 km/h 66 % 0 mm 0.0 W/m2 CLR
02:32 -9.8 °C -13.2 °C 34246 hPa SW 62.6 km/h 62.6 km/h 66 % 0 mm 0.0 W/m2 CLR
02:37 -10.1 °C -13.6 °C 34246 hPa SW 89.3 km/h 89.3 km/h 66 % 0 mm 0.0 W/m2 CLR
02:42 -9.8 °C -13.2 °C 34246 hPa SW 68.6 km/h 68.6 km/h 66 % 0 mm 0.0 W/m2 CLR
02:47 -10.1 °C -13.4 °C 34246 hPa SW 74.5 km/h 74.5 km/h 67 % 0 mm 0.0 W/m2 CLR
02:52 -10.1 °C -13.4 °C 34235.8 hPa SW 74.5 km/h 74.5 km/h 67 % 0 mm 0.0 W/m2 CLR
02:57 -10.1 °C -13.4 °C 34246 hPa SW 74.5 km/h 74.5 km/h 67 % 0 mm 0.0 W/m2 CLR
03:02 -10.1 °C -13.4 °C 34246 hPa SSW 54.4 km/h 54.4 km/h 67 % 0 mm 0.0 W/m2 CLR
03:07 -10.1 °C -13.4 °C 34246 hPa SSW 68.6 km/h 68.6 km/h 67 % 0 mm 0.0 W/m2 CLR
03:12 -10.1 °C -13.4 °C 34256.2 hPa SSW 64.7 km/h 64.7 km/h 67 % 0 mm 0.0 W/m2 CLR
03:17 -10.1 °C -13.4 °C 34256.2 hPa SSW 56.6 km/h 56.6 km/h 67 % 0 mm 0.0 W/m2 CLR
03:22 -10.1 °C -13.4 °C 34256.2 hPa SW 59.5 km/h 59.5 km/h 67 % 0 mm 0.0 W/m2 CLR
03:27 -10.1 °C -13.3 °C 34256.2 hPa SSW 56.6 km/h 56.6 km/h 68 % 0 mm 0.0 W/m2 CLR
03:32 -10.1 °C -13.3 °C 34256.2 hPa SW 44.7 km/h 44.7 km/h 68 % 0 mm 0.0 W/m2 CLR
03:37 -10.1 °C -13.3 °C 34256.2 hPa WSW 38.8 km/h 38.8 km/h 68 % 0 mm 0.0 W/m2 CLR
03:42 -10.1 °C -13.3 °C 34256.2 hPa SW 50.7 km/h 50.7 km/h 68 % 0 mm 0.0 W/m2 CLR
03:47 -10.1 °C -13.3 °C 34256.2 hPa SW 44.7 km/h 44.7 km/h 68 % 0 mm 0.0 W/m2 CLR
03:52 -10.4 °C -13.6 °C 34246 hPa West 59.5 km/h 59.5 km/h 68 % 0 mm 0.0 W/m2 CLR
03:57 -10.1 °C -13.3 °C 34246 hPa SSW 32.8 km/h 32.8 km/h 68 % 0 mm 0.0 W/m2 CLR
04:02 -10.4 °C -13.6 °C 34246 hPa SW 41.7 km/h 41.7 km/h 68 % 0 mm 0.0 W/m2 CLR
04:07 -10.4 °C -13.6 °C 34246 hPa SW 47.6 km/h 47.6 km/h 68 % 0 mm 0.0 W/m2 CLR
04:12 -10.4 °C -13.7 °C 34246 hPa SW 51.8 km/h 51.8 km/h 67 % 0 mm 0.0 W/m2 CLR
04:17 -10.4 °C -13.7 °C 34246 hPa SW 71.5 km/h 71.5 km/h 67 % 0 mm 0.0 W/m2 CLR
04:22 -10.1 °C -13.4 °C 34246 hPa WSW 68.6 km/h 68.6 km/h 67 % 0 mm 0.0 W/m2 CLR
04:27 -10.4 °C -13.7 °C 34256.2 hPa SW 50.7 km/h 50.7 km/h 67 % 0 mm 0.0 W/m2 CLR
04:32 -10.1 °C -13.4 °C 34246 hPa SW 54.4 km/h 54.4 km/h 67 % 0 mm 0.0 W/m2 CLR
04:37 -10.4 °C -13.7 °C 34256.2 hPa SW 50.7 km/h 50.7 km/h 67 % 0 mm 0.0 W/m2 CLR
04:42 -10.4 °C -13.7 °C 34256.2 hPa SW 56.6 km/h 56.6 km/h 67 % 0 mm 0.0 W/m2 CLR
04:47 -10.4 °C -13.6 °C 34256.2 hPa SSW 50.7 km/h 50.7 km/h 68 % 0 mm 0.0 W/m2 CLR
04:52 -10.4 °C -13.6 °C 34256.2 hPa SW 50.7 km/h 50.7 km/h 68 % 0 mm 0.0 W/m2 CLR
04:57 -10.4 °C -13.6 °C 34256.2 hPa SSW 65.5 km/h 65.5 km/h 68 % 0 mm 0.0 W/m2 CLR
05:02 -10.4 °C -13.6 °C 34256.2 hPa SW 50.7 km/h 50.7 km/h 68 % 0 mm 0.0 W/m2 CLR
05:07 -10.4 °C -13.6 °C 34256.2 hPa SSW 41.7 km/h 41.7 km/h 68 % 0 mm 0.0 W/m2 CLR
05:12 -10.4 °C -13.6 °C 34256.2 hPa SW 53.6 km/h 53.6 km/h 68 % 0 mm 0.0 W/m2 CLR
05:17 -10.4 °C -13.6 °C 34256.2 hPa SW 50.7 km/h 50.7 km/h 68 % 0 mm 0.0 W/m2 CLR
05:22 -10.4 °C -13.6 °C 34256.2 hPa SW 62.1 km/h 62.1 km/h 68 % 0 mm 0.0 W/m2 CLR
05:27 -10.4 °C -13.6 °C 34256.2 hPa SW 47.6 km/h 47.6 km/h 68 % 0 mm 0.0 W/m2 CLR
05:32 -10.4 °C -13.6 °C 34256.2 hPa SW 47.6 km/h 47.6 km/h 68 % 0 mm 0.0 W/m2 CLR
05:37 -10.4 °C -13.4 °C 34256.2 hPa SW 49.2 km/h 49.2 km/h 69 % 0 mm 0.0 W/m2 CLR
05:42 -10.4 °C -13.4 °C 34256.2 hPa West 44.7 km/h 44.7 km/h 69 % 0 mm 0.0 W/m2 CLR
05:48 -10.4 °C -13.4 °C 34269.7 hPa SW 50.7 km/h 50.7 km/h 69 % 0 mm 0.0 W/m2 CLR
05:53 -10.4 °C -13.4 °C 34269.7 hPa SW 38.8 km/h 38.8 km/h 69 % 0 mm 0.0 W/m2 CLR
05:58 -10.4 °C -13.4 °C 34269.7 hPa SSW 44.7 km/h 44.7 km/h 69 % 0 mm 0.0 W/m2 CLR
06:03 -10.7 °C -13.8 °C 34269.7 hPa WSW 41.7 km/h 41.7 km/h 69 % 0 mm 0.0 W/m2 CLR
06:08 -10.4 °C -13.4 °C 34269.7 hPa WSW 50.7 km/h 50.7 km/h 69 % 0 mm 0.0 W/m2 CLR
06:13 -10.7 °C -13.8 °C 34269.7 hPa SW 51.8 km/h 51.8 km/h 69 % 0 mm 0.0 W/m2 CLR
06:18 -10.4 °C -13.4 °C 34256.2 hPa SW 50.7 km/h 50.7 km/h 69 % 0 mm 0.0 W/m2 CLR
06:23 -10.4 °C -13.4 °C 34256.2 hPa SSW 62.6 km/h 62.6 km/h 69 % 0 mm 0.0 W/m2 CLR
06:28 -10.4 °C -13.4 °C 34256.2 hPa SW 53.6 km/h 53.6 km/h 69 % 0 mm 0.0 W/m2 CLR
06:33 -10.4 °C -13.4 °C 34256.2 hPa SW 68.6 km/h 68.6 km/h 69 % 0 mm 0.0 W/m2 CLR
06:38 -10.4 °C -13.4 °C 34256.2 hPa SW 74.5 km/h 74.5 km/h 69 % 0 mm 0.0 W/m2 CLR
06:43 -10.4 °C -13.4 °C 34269.7 hPa SW 68.6 km/h 68.6 km/h 69 % 0 mm 0.0 W/m2 CLR
06:48 -10.4 °C -13.4 °C 34269.7 hPa WSW 50.7 km/h 50.7 km/h 69 % 0 mm 0.0 W/m2 CLR
06:53 -10.4 °C -13.4 °C 34269.7 hPa SW 83.4 km/h 83.4 km/h 69 % 0 mm 0.0 W/m2 CLR
06:58 -10.4 °C -13.4 °C 34279.9 hPa West 62.6 km/h 62.6 km/h 69 % 0 mm 0.0 W/m2 CLR
07:03 -10.4 °C -13.4 °C 34269.7 hPa WSW 62.6 km/h 62.6 km/h 69 % 0 mm 0.0 W/m2 CLR
07:08 -10.4 °C -13.4 °C 34279.9 hPa WSW 59.5 km/h 59.5 km/h 69 % 0 mm 0.0 W/m2 CLR
07:13 -10.4 °C -13.4 °C 34279.9 hPa SW 44.7 km/h 44.7 km/h 69 % 0 mm 0.0 W/m2 CLR
07:18 -10.4 °C -13.3 °C 34279.9 hPa WSW 71.5 km/h 71.5 km/h 70 % 0 mm 0.0 W/m2 CLR
07:23 -10.4 °C -13.3 °C 34279.9 hPa West 50.7 km/h 50.7 km/h 70 % 0 mm 0.0 W/m2 CLR
07:28 -10.4 °C -13.3 °C 34279.9 hPa SW 56.6 km/h 56.6 km/h 70 % 0 mm 0.0 W/m2 OVC
07:33 -10.4 °C -13.3 °C 34293.4 hPa SW 50.7 km/h 50.7 km/h 70 % 0 mm 0.0 W/m2 OVC
07:38 -10.4 °C -13.3 °C 34293.4 hPa SW 51.8 km/h 51.8 km/h 70 % 0 mm 7.0 W/m2 BKN
07:43 -10.4 °C -13.3 °C 34293.4 hPa SW 56.6 km/h 56.6 km/h 70 % 0 mm 11.0 W/m2 BKN
07:48 -10.4 °C -13.3 °C 34293.4 hPa SSW 50.7 km/h 50.7 km/h 70 % 0 mm 14.0 W/m2 BKN
07:53 -10.4 °C -13.3 °C 34293.4 hPa SW 44.7 km/h 44.7 km/h 70 % 0 mm 18.0 W/m2 BKN
07:58 -10.4 °C -13.3 °C 34293.4 hPa WSW 75.2 km/h 75.2 km/h 70 % 0 mm 19.0 W/m2 BKN
08:03 -10.4 °C -13.3 °C 34293.4 hPa WSW 68.6 km/h 68.6 km/h 70 % 0 mm 25.0 W/m2 BKN
08:08 -10.4 °C -13.3 °C 34293.4 hPa SW 59.5 km/h 59.5 km/h 70 % 0 mm 32.0 W/m2 BKN
08:13 -10.4 °C -13.3 °C 34293.4 hPa SW 51.8 km/h 51.8 km/h 70 % 0 mm 44.0 W/m2 BKN
08:18 -10.4 °C -13.3 °C 34293.4 hPa SSW 56.6 km/h 56.6 km/h 70 % 0 mm 54.0 W/m2 SCT
08:23 -10.1 °C -13.2 °C 34303.6 hPa SW 50.7 km/h 50.7 km/h 69 % 0 mm 63.0 W/m2 SCT
08:28 -10.1 °C -13.2 °C 34303.6 hPa SW 57 km/h 57 km/h 69 % 0 mm 77.0 W/m2 FEW
08:33 -10.1 °C -13.2 °C 34303.6 hPa SW 68.6 km/h 68.6 km/h 69 % 0 mm 54.0 W/m2 FEW
08:38 -10.1 °C -13.2 °C 34303.6 hPa WSW 59.5 km/h 59.5 km/h 69 % 0 mm 46.0 W/m2 SCT
08:43 -10.1 °C -13.3 °C 34303.6 hPa SW 57 km/h 57 km/h 68 % 0 mm 40.0 W/m2 BKN
08:48 -10.1 °C -13.3 °C 34303.6 hPa WSW 50.7 km/h 50.7 km/h 68 % 0 mm 42.0 W/m2 BKN
08:53 -9.8 °C -13 °C 34313.7 hPa WSW 62.6 km/h 62.6 km/h 68 % 0 mm 165.0 W/m2 SCT
08:58 -9.8 °C -13.1 °C 34303.6 hPa SW 59.5 km/h 59.5 km/h 67 % 0 mm 185.0 W/m2 CLR
09:03 -9.8 °C -13.1 °C 34303.6 hPa SSW 59.5 km/h 59.5 km/h 67 % 0 mm 202.0 W/m2 CLR
09:08 -9.8 °C -13.1 °C 34313.7 hPa WSW 57 km/h 57 km/h 67 % 0 mm 218.0 W/m2 CLR
09:13 -9.4 °C -12.9 °C 34303.6 hPa WSW 41.7 km/h 41.7 km/h 66 % 0 mm 236.0 W/m2 CLR
09:18 -9.4 °C -13.1 °C 34303.6 hPa South 44.7 km/h 44.7 km/h 65 % 0 mm 255.0 W/m2 CLR
09:23 -9.4 °C -13.1 °C 34303.6 hPa SW 83.4 km/h 83.4 km/h 65 % 0 mm 267.0 W/m2 CLR
09:28 -9.4 °C -13.2 °C 34303.6 hPa SW 59.5 km/h 59.5 km/h 64 % 0 mm 285.0 W/m2 CLR
09:33 -9.1 °C -12.9 °C 34313.7 hPa WSW 77.4 km/h 77.4 km/h 64 % 0 mm 301.0 W/m2 CLR
09:38 -9.1 °C -12.9 °C 34313.7 hPa SW 74.5 km/h 74.5 km/h 64 % 0 mm 315.0 W/m2 CLR
09:43 -9.1 °C -13 °C 34313.7 hPa WSW 89.3 km/h 89.3 km/h 63 % 0 mm 332.0 W/m2 CLR
09:48 -9.1 °C -13 °C 34313.7 hPa SW 62.1 km/h 62.1 km/h 63 % 0 mm 350.0 W/m2 CLR
09:53 -8.8 °C -12.7 °C 34313.7 hPa WSW 54.4 km/h 54.4 km/h 63 % 0 mm 362.0 W/m2 CLR
09:58 -8.8 °C -12.9 °C 34313.7 hPa SW 68.6 km/h 68.6 km/h 62 % 0 mm 381.0 W/m2 CLR
10:03 -8.8 °C -13 °C 34313.7 hPa WSW 80.5 km/h 80.5 km/h 61 % 0 mm 399.0 W/m2 CLR
10:08 -8.8 °C -13 °C 34327.3 hPa SW 83.4 km/h 83.4 km/h 61 % 0 mm 413.0 W/m2 CLR
10:13 -8.5 °C -12.7 °C 34327.3 hPa West 80.3 km/h 80.3 km/h 61 % 0 mm 432.0 W/m2 CLR
10:18 -8.5 °C -12.7 °C 34327.3 hPa SW 62.1 km/h 62.1 km/h 61 % 0 mm 443.0 W/m2 CLR
10:23 -8.5 °C -13 °C 34327.3 hPa WSW 93.2 km/h 93.2 km/h 59 % 0 mm 459.0 W/m2 CLR
10:28 -8.5 °C -13 °C 34313.7 hPa WSW 62.1 km/h 62.1 km/h 59 % 0 mm 471.0 W/m2 CLR
10:33 -8.2 °C -12.8 °C 34337.4 hPa WSW 86.4 km/h 86.4 km/h 58 % 0 mm 489.0 W/m2 CLR
10:38 -8.2 °C -12.8 °C 34327.3 hPa WSW 80.5 km/h 80.5 km/h 58 % 0 mm 501.0 W/m2 CLR
10:43 -7.9 °C -12.7 °C 34327.3 hPa WSW 101.1 km/h 101.1 km/h 57 % 0 mm 519.0 W/m2 CLR
10:48 -7.9 °C -12.7 °C 34337.4 hPa WSW 74.5 km/h 74.5 km/h 57 % 0 mm 575.0 W/m2 CLR
10:53 -7.9 °C -12.7 °C 34327.3 hPa SW 95.3 km/h 95.3 km/h 57 % 0 mm 548.0 W/m2 CLR
10:58 -7.9 °C -12.6 °C 34327.3 hPa WSW 68.6 km/h 68.6 km/h 58 % 0 mm 555.0 W/m2 CLR
11:03 -7.6 °C -12.4 °C 34327.3 hPa SW 86.4 km/h 86.4 km/h 57 % 0 mm 496.0 W/m2 CLR
11:08 -7.6 °C -12.4 °C 34327.3 hPa WSW 95.3 km/h 95.3 km/h 57 % 0 mm 587.0 W/m2 CLR
11:13 -7.6 °C -12.6 °C 34327.3 hPa WSW 89.3 km/h 89.3 km/h 56 % 0 mm 594.0 W/m2 CLR
11:18 -7.6 °C -12.6 °C 34327.3 hPa SW 80.5 km/h 80.5 km/h 56 % 0 mm 608.0 W/m2 CLR
11:23 -7.3 °C -12.3 °C 34327.3 hPa WSW 89.3 km/h 89.3 km/h 56 % 0 mm 626.0 W/m2 CLR
11:28 -7.3 °C -12.4 °C 34327.3 hPa WSW 101.2 km/h 101.2 km/h 55 % 0 mm 638.0 W/m2 CLR
11:33 -7.3 °C -12.6 °C 34327.3 hPa SW 74.5 km/h 74.5 km/h 54 % 0 mm 647.0 W/m2 CLR
11:38 -7.3 °C -12.4 °C 34337.4 hPa WSW 93.2 km/h 93.2 km/h 55 % 0 mm 675.0 W/m2 CLR
11:43 -7 °C -12.3 °C 34337.4 hPa SW 98.3 km/h 98.3 km/h 54 % 0 mm 680.0 W/m2 CLR
11:49 -7 °C -12.3 °C 34327.3 hPa SW 89.3 km/h 89.3 km/h 54 % 0 mm 682.0 W/m2 CLR
11:54 -7 °C -12.3 °C 34327.3 hPa SW 113.1 km/h 113.1 km/h 54 % 0 mm 694.0 W/m2 CLR
11:59 -7 °C -12.4 °C 34327.3 hPa SW 89.3 km/h 89.3 km/h 53 % 0 mm 700.0 W/m2 CLR
12:04 -7 °C -12.3 °C 34327.3 hPa WSW 77.4 km/h 77.4 km/h 54 % 0 mm 708.0 W/m2 CLR
12:09 -6.7 °C -12.3 °C 34327.3 hPa WSW 101.2 km/h 101.2 km/h 52 % 0 mm 717.0 W/m2 CLR
12:14 -6.7 °C -12.3 °C 34327.3 hPa SW 89.3 km/h 89.3 km/h 52 % 0 mm 726.0 W/m2 CLR
12:19 -6.7 °C -12.3 °C 34327.3 hPa WSW 95.3 km/h 95.3 km/h 52 % 0 mm 740.0 W/m2 CLR
12:24 -6.7 °C -12.3 °C 34327.3 hPa WSW 95.3 km/h 95.3 km/h 52 % 0 mm 751.0 W/m2 CLR
12:29 -6.7 °C -12.3 °C 34337.4 hPa WSW 77.4 km/h 77.4 km/h 52 % 0 mm 786.0 W/m2 CLR
12:34 -6.7 °C -12.3 °C 34327.3 hPa West 68.6 km/h 68.6 km/h 52 % 0 mm 768.0 W/m2 CLR
12:39 -6.3 °C -12.2 °C 34337.4 hPa WSW 83.4 km/h 83.4 km/h 51 % 0 mm 798.0 W/m2 CLR
12:44 -6.3 °C -12.3 °C 34337.4 hPa WSW 98.3 km/h 98.3 km/h 50 % 0 mm 816.0 W/m2 CLR
12:49 -6.3 °C -12.3 °C 34337.4 hPa WSW 69.8 km/h 69.8 km/h 50 % 0 mm 810.0 W/m2 CLR
12:54 -6.1 °C -11.9 °C 34337.4 hPa WSW 83.4 km/h 83.4 km/h 51 % 0 mm 803.0 W/m2 CLR
12:59 -6.3 °C -12.3 °C 34337.4 hPa SW 83.4 km/h 83.4 km/h 50 % 0 mm 752.0 W/m2 CLR
13:04 -6.1 °C -12.2 °C 34337.4 hPa SW 83.4 km/h 83.4 km/h 49 % 0 mm 793.0 W/m2 CLR
13:09 -6.1 °C -12.2 °C 34327.3 hPa WSW 74.5 km/h 74.5 km/h 49 % 0 mm 795.0 W/m2 CLR
13:14 -6.1 °C -12.2 °C 34327.3 hPa West 71.5 km/h 71.5 km/h 49 % 0 mm 810.0 W/m2 CLR
13:19 -5.7 °C -12.1 °C 34327.3 hPa WSW 86.4 km/h 86.4 km/h 48 % 0 mm 830.0 W/m2 CLR
13:24 -6.3 °C -12.6 °C 34327.3 hPa WSW 62.6 km/h 75.3 km/h 49 % 0 mm 824.0 W/m2 CLR
13:29 -6.1 °C -12.2 °C 34327.3 hPa WSW 90.6 km/h 90.6 km/h 49 % 0 mm 821.0 W/m2 CLR
13:34 -6.1 °C -12.2 °C 34327.3 hPa WSW 80.3 km/h 80.3 km/h 49 % 0 mm 831.0 W/m2 CLR
13:39 -5.7 °C -11.9 °C 34327.3 hPa WSW 98.3 km/h 98.3 km/h 49 % 0 mm 837.0 W/m2 CLR
13:44 -6.1 °C -12.1 °C 34327.3 hPa SW 68.6 km/h 68.6 km/h 50 % 0 mm 807.0 W/m2 CLR
13:49 -6.1 °C -12.1 °C 34327.3 hPa SW 74.5 km/h 74.5 km/h 50 % 0 mm 812.0 W/m2 CLR
13:54 -5.7 °C -11.9 °C 34327.3 hPa SW 77.7 km/h 77.7 km/h 49 % 0 mm 816.0 W/m2 CLR
13:59 -5.7 °C -11.9 °C 34327.3 hPa West 80.3 km/h 80.3 km/h 49 % 0 mm 814.0 W/m2 CLR
14:04 -5.7 °C -11.9 °C 34327.3 hPa SW 80.5 km/h 80.5 km/h 49 % 0 mm 810.0 W/m2 CLR
14:09 -5.7 °C -12.3 °C 34327.3 hPa SW 98.3 km/h 98.3 km/h 47 % 0 mm 812.0 W/m2 CLR
14:14 -5.7 °C -12.3 °C 34337.4 hPa WSW 83.4 km/h 83.4 km/h 47 % 0 mm 809.0 W/m2 CLR
14:19 -5.7 °C -12.3 °C 34337.4 hPa West 104.3 km/h 104.3 km/h 47 % 0 mm 809.0 W/m2 CLR
14:24 -5.4 °C -11.8 °C 34337.4 hPa WSW 92.4 km/h 92.4 km/h 48 % 0 mm 812.0 W/m2 CLR
14:29 -5.7 °C -12.3 °C 34327.3 hPa WSW 89.3 km/h 89.3 km/h 47 % 0 mm 805.0 W/m2 CLR
14:34 -5.7 °C -12.3 °C 34337.4 hPa WSW 92.4 km/h 92.4 km/h 47 % 0 mm 805.0 W/m2 CLR
14:39 -5.4 °C -12.2 °C 34337.4 hPa WSW 95.3 km/h 95.3 km/h 46 % 0 mm 846.0 W/m2 CLR
14:44 -5.4 °C -12.2 °C 34327.3 hPa WSW 89.3 km/h 89.3 km/h 46 % 0 mm 831.0 W/m2 CLR
14:49 -5.4 °C -12 °C 34327.3 hPa WSW 77.7 km/h 77.7 km/h 47 % 0 mm 816.0 W/m2 CLR
14:54 -5.4 °C -12.4 °C 34327.3 hPa WSW 71.5 km/h 71.5 km/h 45 % 0 mm 793.0 W/m2 CLR
14:59 -5.7 °C -12.7 °C 34327.3 hPa SW 86.4 km/h 86.4 km/h 45 % 0 mm 786.0 W/m2 CLR
15:04 -5.4 °C -12.6 °C 34327.3 hPa WSW 77.4 km/h 77.4 km/h 44 % 0 mm 779.0 W/m2 CLR
15:09 -5.1 °C -12.1 °C 34327.3 hPa West 86.4 km/h 86.4 km/h 45 % 0 mm 784.0 W/m2 CLR
15:14 -5.4 °C -12.4 °C 34327.3 hPa SW 71.5 km/h 71.5 km/h 45 % 0 mm 775.0 W/m2 CLR
15:19 -5.1 °C -12.3 °C 34337.4 hPa West 80.5 km/h 80.5 km/h 44 % 0 mm 795.0 W/m2 CLR
15:24 -5.1 °C -12.3 °C 34327.3 hPa SW 68.6 km/h 68.6 km/h 44 % 0 mm 779.0 W/m2 CLR
15:29 -5.1 °C -12.3 °C 34327.3 hPa SW 89.3 km/h 89.3 km/h 44 % 0 mm 789.0 W/m2 CLR
15:30 -5.1 °C -12.3 °C 34327.3 hPa SW 89.3 km/h 89.3 km/h 44 % 0 mm 789.0 W/m2 CLR
15:35 -5.4 °C -12.4 °C 34327.3 hPa WSW 83.4 km/h 83.4 km/h 45 % 0 mm 782.0 W/m2 CLR
15:40 -5.4 °C -12.4 °C 34327.3 hPa WSW 98.3 km/h 98.3 km/h 45 % 0 mm 731.0 W/m2 CLR
15:45 -5.4 °C -12.6 °C 34327.3 hPa SW 77.4 km/h 77.4 km/h 44 % 0 mm 714.0 W/m2 CLR
15:50 -5.4 °C -12.6 °C 34327.3 hPa SW 71.5 km/h 71.5 km/h 44 % 0 mm 714.0 W/m2 CLR
15:55 -5.1 °C -12.1 °C 34327.3 hPa WSW 83.4 km/h 83.4 km/h 45 % 0 mm 705.0 W/m2 CLR
16:00 -5.4 °C -12.7 °C 34327.3 hPa SW 89.3 km/h 89.3 km/h 43 % 0 mm 694.0 W/m2 CLR
16:05 -5.4 °C -12.4 °C 34327.3 hPa WSW 80.5 km/h 80.5 km/h 45 % 0 mm 689.0 W/m2 CLR
16:10 -5.4 °C -12.4 °C 34327.3 hPa WSW 72.6 km/h 72.6 km/h 45 % 0 mm 677.0 W/m2 CLR
16:15 -5.4 °C -12.6 °C 34313.7 hPa West 89.3 km/h 89.3 km/h 44 % 0 mm 664.0 W/m2 CLR
16:20 -5.4 °C -12.6 °C 34313.7 hPa WSW 74.5 km/h 74.5 km/h 44 % 0 mm 649.0 W/m2 CLR
16:25 -5.4 °C -12.4 °C 34313.7 hPa WSW 64.7 km/h 64.7 km/h 45 % 0 mm 647.0 W/m2 CLR
16:30 -5.4 °C -12.7 °C 34313.7 hPa SW 101.2 km/h 101.2 km/h 43 % 0 mm 628.0 W/m2 CLR
16:35 -5.4 °C -12.4 °C 34313.7 hPa SW 71.5 km/h 71.5 km/h 45 % 0 mm 615.0 W/m2 CLR
16:40 -5.1 °C -12.3 °C 34313.7 hPa WSW 92.4 km/h 92.4 km/h 44 % 0 mm 605.0 W/m2 CLR
16:45 -5.4 °C -12.6 °C 34327.3 hPa SW 92.4 km/h 92.4 km/h 44 % 0 mm 589.0 W/m2 CLR
16:50 -5.4 °C -12.6 °C 34313.7 hPa WSW 89.3 km/h 89.3 km/h 44 % 0 mm 575.0 W/m2 CLR
16:55 -5.7 °C -12.7 °C 34313.7 hPa West 74.5 km/h 74.5 km/h 45 % 0 mm 566.0 W/m2 CLR
17:00 -5.7 °C -12.8 °C 34313.7 hPa WSW 77.4 km/h 77.4 km/h 44 % 0 mm 555.0 W/m2 CLR
17:05 -5.7 °C -12.7 °C 34313.7 hPa SW 74.5 km/h 74.5 km/h 45 % 0 mm 540.0 W/m2 CLR
17:10 -5.7 °C -12.7 °C 34313.7 hPa West 80.5 km/h 80.5 km/h 45 % 0 mm 524.0 W/m2 CLR
17:15 -5.7 °C -12.7 °C 34313.7 hPa SW 86.4 km/h 86.4 km/h 45 % 0 mm 510.0 W/m2 CLR
17:20 -5.7 °C -12.7 °C 34313.7 hPa West 89.3 km/h 89.3 km/h 45 % 0 mm 494.0 W/m2 CLR
17:25 -5.7 °C -12.4 °C 34313.7 hPa SW 80.5 km/h 80.5 km/h 46 % 0 mm 480.0 W/m2 CLR
17:30 -5.4 °C -12.4 °C 34313.7 hPa SW 86.4 km/h 86.4 km/h 45 % 0 mm 462.0 W/m2 CLR
17:35 -5.4 °C -12.4 °C 34313.7 hPa SW 56.6 km/h 56.6 km/h 45 % 0 mm 452.0 W/m2 CLR
17:40 -5.4 °C -12.6 °C 34313.7 hPa WSW 56.6 km/h 56.6 km/h 44 % 0 mm 432.0 W/m2 CLR
17:45 -5.4 °C -12.7 °C 34327.3 hPa WSW 77.4 km/h 77.4 km/h 43 % 0 mm 418.0 W/m2 CLR
17:46 -5.4 °C -12.7 °C 34327.3 hPa SW 77.4 km/h 77.4 km/h 43 % 0 mm 418.0 W/m2 CLR
17:51 -5.4 °C -12.4 °C 34327.3 hPa West 65.5 km/h 65.5 km/h 45 % 0 mm 403.0 W/m2 CLR
17:56 -5.4 °C -12.6 °C 34327.3 hPa WSW 59.5 km/h 59.5 km/h 44 % 0 mm 387.0 W/m2 CLR
18:01 -5.7 °C -13.2 °C 34327.3 hPa WSW 77.7 km/h 77.7 km/h 42 % 0 mm 367.0 W/m2 CLR
18:06 -5.7 °C -13 °C 34327.3 hPa WSW 59.5 km/h 59.5 km/h 43 % 0 mm 355.0 W/m2 CLR
18:11 -5.4 °C -12.7 °C 34327.3 hPa WSW 53.6 km/h 53.6 km/h 43 % 0 mm 338.0 W/m2 CLR
18:16 -5.7 °C -13.2 °C 34327.3 hPa WSW 56.6 km/h 56.6 km/h 42 % 0 mm 327.0 W/m2 CLR
18:21 -5.7 °C -13.2 °C 34337.4 hPa SW 77.4 km/h 77.4 km/h 42 % 0 mm 316.0 W/m2 CLR
18:26 -5.7 °C -13 °C 34327.3 hPa SW 33.6 km/h 33.6 km/h 43 % 0 mm 297.0 W/m2 CLR
18:31 -5.7 °C -13.4 °C 34337.4 hPa WSW 53.6 km/h 53.6 km/h 41 % 0 mm 283.0 W/m2 CLR
18:36 -6.1 °C -13.5 °C 34337.4 hPa WSW 59.5 km/h 59.5 km/h 42 % 0 mm 269.0 W/m2 CLR
18:41 -6.1 °C -13.3 °C 34347.6 hPa WSW 80.5 km/h 80.5 km/h 43 % 0 mm 250.0 W/m2 CLR
18:42 -6.1 °C -13.3 °C 34337.4 hPa SW 80.5 km/h 80.5 km/h 43 % 0 mm 241.0 W/m2 CLR
18:47 -6.1 °C -13.3 °C 34337.4 hPa WSW 68.6 km/h 68.6 km/h 43 % 0 mm 227.0 W/m2 CLR
18:52 -6.1 °C -13.3 °C 34347.6 hPa SW 75.2 km/h 75.2 km/h 43 % 0 mm 207.0 W/m2 CLR
18:57 -6.1 °C -13.3 °C 34347.6 hPa West 53.6 km/h 53.6 km/h 43 % 0 mm 185.0 W/m2 CLR
19:02 -6.3 °C -13.6 °C 34347.6 hPa SW 50.7 km/h 50.7 km/h 43 % 0 mm 163.0 W/m2 CLR
19:07 -6.3 °C -13.6 °C 34347.6 hPa WSW 74.5 km/h 74.5 km/h 43 % 0 mm 146.0 W/m2 CLR
19:12 -6.3 °C -13.6 °C 34347.6 hPa WSW 71.5 km/h 71.5 km/h 43 % 0 mm 130.0 W/m2 CLR
19:17 -6.3 °C -13.6 °C 34347.6 hPa West 50.7 km/h 50.7 km/h 43 % 0 mm 116.0 W/m2 CLR
19:22 -6.3 °C -13.6 °C 34347.6 hPa WSW 68.6 km/h 68.6 km/h 43 % 0 mm 100.0 W/m2 CLR
19:27 -6.3 °C -13.4 °C 34347.6 hPa SW 44.7 km/h 44.7 km/h 44 % 0 mm 83.0 W/m2 CLR
19:32 -6.3 °C -13.6 °C 34347.6 hPa WSW 33.6 km/h 33.6 km/h 43 % 0 mm 69.0 W/m2 FEW
19:37 -6.3 °C -13.6 °C 34347.6 hPa SW 56.6 km/h 56.6 km/h 43 % 0 mm 53.0 W/m2 SCT
19:42 -6.7 °C -13.8 °C 34347.6 hPa SSW 50.7 km/h 50.7 km/h 43 % 0 mm 42.0 W/m2 SCT
19:47 -6.7 °C -13.7 °C 34347.6 hPa SW 50.7 km/h 50.7 km/h 44 % 0 mm 33.0 W/m2 BKN
19:52 -6.7 °C -13.7 °C 34347.6 hPa SSW 17.9 km/h 17.9 km/h 44 % 0 mm 18.0 W/m2 BKN
19:57 -6.7 °C -13.7 °C 34347.6 hPa SW 29.8 km/h 29.8 km/h 44 % 0 mm 14.0 W/m2 BKN
20:02 -6.7 °C -13.5 °C 34347.6 hPa WSW 50.7 km/h 50.7 km/h 45 % 0 mm 12.0 W/m2 BKN
20:07 -6.7 °C -13.5 °C 34347.6 hPa SW 50.7 km/h 50.7 km/h 45 % 0 mm 9.0 W/m2 BKN
20:12 -7 °C -13.8 °C 34347.6 hPa SW 32.8 km/h 32.8 km/h 45 % 0 mm 5.0 W/m2 OVC
20:17 -7 °C -13.6 °C 34347.6 hPa SW 29.8 km/h 29.8 km/h 46 % 0 mm 0.0 W/m2 OVC
20:22 -7 °C -13.6 °C 34347.6 hPa SW 38.8 km/h 38.8 km/h 46 % 0 mm 0.0 W/m2 OVC
20:27 -7.3 °C -13.7 °C 34361.1 hPa WSW 38.8 km/h 38.8 km/h 47 % 0 mm 0.0 W/m2 OVC
20:32 -7.3 °C -13.7 °C 34361.1 hPa WSW 29.8 km/h 29.8 km/h 47 % 0 mm 0.0 W/m2 CLR
20:37 -7.3 °C -13.6 °C 34361.1 hPa SW 26.9 km/h 26.9 km/h 48 % 0 mm 0.0 W/m2 CLR
20:42 -7.3 °C -13.6 °C 34361.1 hPa SW 38.8 km/h 38.8 km/h 48 % 0 mm 0.0 W/m2 CLR
20:47 -7.6 °C -13.8 °C 34361.1 hPa SW 44.7 km/h 44.7 km/h 48 % 0 mm 0.0 W/m2 CLR
20:52 -7.3 °C -13.6 °C 34361.1 hPa WSW 47.6 km/h 47.6 km/h 48 % 0 mm 0.0 W/m2 CLR
20:57 -7.3 °C -13.6 °C 34371.3 hPa West 41.7 km/h 41.7 km/h 48 % 0 mm 0.0 W/m2 CLR
20:58 -7.3 °C -13.6 °C 34371.3 hPa WSW 38.8 km/h 38.8 km/h 48 % 0 mm 0.0 W/m2 CLR
21:03 -7.3 °C -13.6 °C 34371.3 hPa WSW 35.7 km/h 35.7 km/h 48 % 0 mm 0.0 W/m2 CLR
21:08 -7.6 °C -13.7 °C 34371.3 hPa SW 23.8 km/h 23.8 km/h 49 % 0 mm 0.0 W/m2 CLR
21:13 -7.6 °C -13.7 °C 34371.3 hPa SW 20.9 km/h 20.9 km/h 49 % 0 mm 0.0 W/m2 CLR
21:18 -7.6 °C -13.8 °C 34371.3 hPa Calm     48 % 0 mm 0.0 W/m2 CLR
21:23 -7.6 °C -13.8 °C 34371.3 hPa SSW 32.8 km/h 32.8 km/h 48 % 0 mm 0.0 W/m2 CLR
21:28 -7.6 °C -13.8 °C 34371.3 hPa SSW 26.9 km/h 26.9 km/h 48 % 0 mm 0.0 W/m2 CLR
21:33 -7.6 °C -13.8 °C 34371.3 hPa SW 29.8 km/h 29.8 km/h 48 % 0 mm 0.0 W/m2 CLR
21:38 -7.6 °C -13.8 °C 34371.3 hPa SW 32.8 km/h 32.8 km/h 48 % 0 mm 0.0 W/m2 CLR
21:43 -7.3 °C -13.6 °C 34371.3 hPa SW 26.9 km/h 26.9 km/h 48 % 0 mm 0.0 W/m2 CLR
21:48 -7.3 °C -13.6 °C 34384.8 hPa SW 38.8 km/h 38.8 km/h 48 % 0 mm 0.0 W/m2 CLR
21:53 -7.3 °C -13.6 °C 34384.8 hPa West 29.8 km/h 29.8 km/h 48 % 0 mm 0.0 W/m2 CLR
21:58 -7.3 °C -13.6 °C 34384.8 hPa WSW 41.7 km/h 41.7 km/h 48 % 0 mm 0.0 W/m2 CLR
22:03 -7.3 °C -13.6 °C 34384.8 hPa WSW 38.8 km/h 38.8 km/h 48 % 0 mm 0.0 W/m2 CLR
22:08 -7.3 °C -13.6 °C 34384.8 hPa WSW 59.5 km/h 59.5 km/h 48 % 0 mm 0.0 W/m2 CLR
22:13 -7.3 °C -13.6 °C 34384.8 hPa SW 41.7 km/h 41.7 km/h 48 % 0 mm 0.0 W/m2 CLR
22:18 -7.3 °C -13.4 °C 34384.8 hPa SW 20.9 km/h 20.9 km/h 49 % 0 mm 0.0 W/m2 CLR
22:23 -7.3 °C -13.4 °C 34384.8 hPa SW 41.7 km/h 41.7 km/h 49 % 0 mm 0.0 W/m2 CLR
22:28 -7.3 °C -13.2 °C 34384.8 hPa WSW 56.6 km/h 56.6 km/h 50 % 0 mm 0.0 W/m2 CLR
22:33 -7.3 °C -13.2 °C 34371.3 hPa SSW 59.5 km/h 59.5 km/h 50 % 0 mm 0.0 W/m2 CLR
22:38 -7.3 °C -13.2 °C 34384.8 hPa SW 44.1 km/h 44.1 km/h 50 % 0 mm 0.0 W/m2 CLR
22:43 -7.3 °C -13.2 °C 34384.8 hPa SW 32.8 km/h 32.8 km/h 50 % 0 mm 0.0 W/m2 CLR
22:48 -7.3 °C -13.1 °C 34384.8 hPa SSW 31.1 km/h 31.1 km/h 51 % 0 mm 0.0 W/m2 CLR
22:54 -7.3 °C -13.1 °C 34384.8 hPa SW 23.8 km/h 23.8 km/h 51 % 0 mm 0.0 W/m2 CLR
22:59 -7.3 °C -13.1 °C 34384.8 hPa SW 26.9 km/h 26.9 km/h 51 % 0 mm 0.0 W/m2 CLR
23:04 -7.3 °C -13.2 °C 34384.8 hPa SSW 29.8 km/h 29.8 km/h 50 % 0 mm 0.0 W/m2 CLR
23:09 -7.3 °C -13.1 °C 34384.8 hPa SSW 26.9 km/h 26.9 km/h 51 % 0 mm 0.0 W/m2 CLR
23:14 -7.6 °C -13.3 °C 34384.8 hPa SW 20.9 km/h 24.3 km/h 51 % 0 mm 0.0 W/m2 CLR
23:19 -7.6 °C -13.3 °C 34384.8 hPa SSW 23.8 km/h 23.8 km/h 51 % 0 mm 0.0 W/m2 CLR
23:24 -7.6 °C -13.3 °C 34384.8 hPa SW 29.8 km/h 29.8 km/h 51 % 0 mm 0.0 W/m2 CLR
23:29 -7.6 °C -13.3 °C 34384.8 hPa SW 35.7 km/h 35.7 km/h 51 % 0 mm 0.0 W/m2 CLR
23:34 -7.6 °C -13.3 °C 34395 hPa SSW 29.8 km/h 29.8 km/h 51 % 0 mm 0.0 W/m2 CLR
23:39 -7.6 °C -13.3 °C 34384.8 hPa SW 35.7 km/h 35.7 km/h 51 % 0 mm 0.0 W/m2 CLR
23:44 -7.6 °C -13.3 °C 34384.8 hPa SSW 35.7 km/h 35.7 km/h 51 % 0 mm 0.0 W/m2 CLR
23:49 -7.6 °C -13.3 °C 34384.8 hPa SSW 38.8 km/h 38.8 km/h 51 % 0 mm 0.0 W/m2 CLR
23:54 -7.6 °C -13.3 °C 34384.8 hPa SW 29.8 km/h 29.8 km/h 51 % 0 mm 0.0 W/m2 CLR
23:59 -7.6 °C -13.5 °C 34384.8 hPa SSW 26.9 km/h 26.9 km/h 50 % 0 mm 0.0 W/m2 CLR
Lo Temps de Massalio
Compliments of Weather Underground - 1.25 mb